Time;durP1;ratioP1;P1;durP2;ratioP2;P2;SDS_P1;SDS_P2;PMS_P1;PMS_P2;Temp;Humidity;BMP_temperature;BMP_pressure;BME280_temperature;BME280_humidity;BME280_pressure;Samples;Min_cycle;Max_cycle;Signal;HPM_P1;HPM_P2
2022/04/14 00:01:57;;;;;;;25.45;13.60;;;10.70;99.90;;;;;;6281836;22;20030;-88
2022/04/14 00:04:26;;;;;;;24.10;14.20;;;10.70;99.90;;;;;;6307591;22;20061;-88
2022/04/14 00:06:53;;;;;;;28.38;15.70;;;10.70;99.90;;;;;;6307695;22;20011;-88
2022/04/14 00:09:20;;;;;;;24.48;14.05;;;10.70;99.90;;;;;;6307519;22;20003;-88
2022/04/14 00:11:46;;;;;;;24.70;13.60;;;10.70;99.90;;;;;;6307593;22;20011;-88
2022/04/14 00:14:13;;;;;;;31.10;15.10;;;10.70;99.90;;;;;;6307342;22;20031;-87
2022/04/14 00:16:39;;;;;;;23.15;13.45;;;10.60;99.90;;;;;;6281387;22;20022;-88
2022/04/14 00:19:07;;;;;;;26.63;13.98;;;10.60;99.90;;;;;;6307620;22;20010;-88
2022/04/14 00:21:34;;;;;;;24.52;13.88;;;10.60;99.90;;;;;;6307545;22;20437;-88
2022/04/14 00:24:01;;;;;;;24.20;12.82;;;10.60;99.90;;;;;;6307267;22;20012;-88
2022/04/14 00:26:28;;;;;;;24.52;13.07;;;10.60;99.90;;;;;;6306941;22;20011;-87
2022/04/14 00:28:54;;;;;;;22.30;13.63;;;10.70;99.90;;;;;;6307401;22;20008;-88
2022/04/14 00:31:21;;;;;;;20.33;12.38;;;10.70;99.90;;;;;;6307045;22;20004;-88
2022/04/14 00:33:47;;;;;;;22.38;13.98;;;10.70;99.90;;;;;;6307312;22;20007;-88
2022/04/14 00:36:14;;;;;;;23.83;15.13;;;10.70;99.90;;;;;;6307424;22;20098;-88
2022/04/14 00:38:41;;;;;;;24.45;15.57;;;10.70;99.90;;;;;;6307450;22;20014;-88
2022/04/14 00:41:08;;;;;;;31.65;15.60;;;10.70;99.90;;;;;;6281206;22;20029;-89
2022/04/14 00:43:35;;;;;;;25.20;14.85;;;10.80;99.90;;;;;;6307326;22;20062;-88
2022/04/14 00:46:03;;;;;;;30.85;15.45;;;10.70;99.90;;;;;;6281434;22;20033;-88
2022/04/14 00:48:31;;;;;;;26.30;15.32;;;10.60;99.90;;;;;;6308203;22;20083;-87
2022/04/14 00:51:00;;;;;;;27.00;15.88;;;10.60;99.90;;;;;;6307050;22;20053;-88
2022/04/14 00:53:27;;;;;;;24.83;15.02;;;10.60;99.90;;;;;;6307055;22;20003;-88
2022/04/14 00:55:54;;;;;;;24.48;13.98;;;10.60;99.90;;;;;;6281295;22;20023;-88
2022/04/14 00:58:21;;;;;;;23.52;14.95;;;10.60;99.90;;;;;;6307272;22;20072;-88
2022/04/14 01:00:49;;;;;;;27.90;14.15;;;10.50;99.90;;;;;;6281502;22;20014;-88
2022/04/14 01:03:17;;;;;;;26.00;14.05;;;10.50;99.90;;;;;;6281537;22;20004;-88
2022/04/14 01:05:45;;;;;;;25.80;14.85;;;10.40;99.90;;;;;;6307589;22;20007;-88
2022/04/14 01:08:17;;;;;;;23.75;14.52;;;10.40;99.90;;;;;;6281233;22;20023;-88
2022/04/14 01:10:48;;;;;;;25.30;13.77;;;10.30;99.90;;;;;;6306874;22;20310;-88
2022/04/14 01:13:19;;;;;;;26.30;14.15;;;10.20;99.90;;;;;;6306942;22;20056;-88
2022/04/14 01:15:47;;;;;;;22.60;14.90;;;10.10;99.90;;;;;;6306921;22;20459;-88
2022/04/14 01:18:15;;;;;;;26.73;15.60;;;10.10;99.90;;;;;;6281280;22;20018;-88
2022/04/14 01:20:43;;;;;;;23.73;15.05;;;10.10;99.90;;;;;;6281447;22;20003;-88
2022/04/14 01:23:12;;;;;;;29.00;14.40;;;10.10;99.90;;;;;;6255819;22;20006;-88
2022/04/14 01:25:39;;;;;;;28.55;14.95;;;10.10;99.90;;;;;;6281450;22;20068;-88
2022/04/14 01:28:09;;;;;;;25.30;14.25;;;10.00;99.90;;;;;;6307214;22;20023;-88
2022/04/14 01:30:36;;;;;;;23.50;13.65;;;10.00;99.90;;;;;;6307671;22;20030;-88
2022/04/14 01:33:04;;;;;;;22.02;14.20;;;10.00;99.90;;;;;;6256528;22;20027;-87
2022/04/14 01:35:31;;;;;;;22.25;14.27;;;9.90;99.90;;;;;;6281484;22;20433;-88
2022/04/14 01:37:57;;;;;;;23.17;14.73;;;9.90;99.90;;;;;;6255755;22;20003;-88
2022/04/14 01:40:31;;;;;;;30.00;15.68;;;9.90;99.90;;;;;;6281228;22;20018;-89
2022/04/14 01:42:57;;;;;;;37.85;16.42;;;9.90;99.90;;;;;;6256706;22;20011;-88
2022/04/14 01:45:24;;;;;;;24.05;14.45;;;9.90;99.90;;;;;;6308980;22;20010;-88
2022/04/14 01:47:50;;;;;;;25.27;13.88;;;9.90;99.90;;;;;;6257580;22;20034;-87
2022/04/14 01:50:18;;;;;;;23.77;14.77;;;9.80;99.90;;;;;;6283124;22;20010;-88
2022/04/14 01:52:45;;;;;;;30.63;15.40;;;9.80;99.90;;;;;;6308836;22;20011;-88
2022/04/14 01:55:13;;;;;;;27.45;15.93;;;9.80;99.90;;;;;;6308907;22;20011;-88
2022/04/14 01:57:40;;;;;;;26.17;14.80;;;9.80;99.90;;;;;;6257454;22;20429;-88
2022/04/14 02:00:08;;;;;;;24.77;15.85;;;9.80;99.90;;;;;;6282960;22;20011;-88
2022/04/14 02:02:35;;;;;;;23.83;14.52;;;9.70;99.90;;;;;;6257429;22;20004;-88
2022/04/14 02:05:02;;;;;;;24.40;15.13;;;9.60;99.90;;;;;;6283011;22;20034;-87
2022/04/14 02:07:29;;;;;;;25.58;14.77;;;9.60;99.90;;;;;;6257447;22;20003;-87
2022/04/14 02:09:56;;;;;;;24.98;15.18;;;9.60;99.90;;;;;;6308546;22;20502;-88
2022/04/14 02:12:24;;;;;;;23.55;14.15;;;9.60;99.90;;;;;;6308640;22;20034;-87
2022/04/14 02:14:53;;;;;;;25.35;14.73;;;9.50;99.90;;;;;;6282779;22;20016;-87
2022/04/14 02:17:20;;;;;;;26.48;15.25;;;9.50;99.90;;;;;;6283009;22;20022;-88
2022/04/14 02:19:47;;;;;;;36.72;17.52;;;9.50;99.90;;;;;;6257192;22;20090;-87
2022/04/14 02:22:15;;;;;;;33.75;17.42;;;9.40;99.90;;;;;;6282726;22;20064;-87
2022/04/14 02:24:41;;;;;;;33.67;18.35;;;9.40;99.90;;;;;;6257225;22;20094;-87
2022/04/14 02:27:08;;;;;;;38.03;18.58;;;9.40;99.90;;;;;;6308513;22;20011;-87
2022/04/14 02:29:35;;;;;;;42.58;19.35;;;9.40;99.90;;;;;;6308502;22;20007;-87
2022/04/14 02:32:02;;;;;;;43.00;20.42;;;9.40;99.90;;;;;;6257236;22;20133;-88
2022/04/14 02:34:28;;;;;;;39.25;21.52;;;9.40;99.90;;;;;;6256990;22;20011;-87
2022/04/14 02:36:55;;;;;;;37.28;20.27;;;9.30;99.90;;;;;;6308637;22;20476;-87
2022/04/14 02:39:21;;;;;;;33.97;19.60;;;9.30;99.90;;;;;;6308681;22;20129;-88
2022/04/14 02:41:48;;;;;;;39.80;20.52;;;9.30;99.90;;;;;;6308267;22;20015;-87
2022/04/14 02:44:15;;;;;;;37.67;20.77;;;9.30;99.90;;;;;;6308329;22;20010;-87
2022/04/14 02:46:41;;;;;;;36.67;20.23;;;9.30;99.90;;;;;;6308290;22;20004;-88
2022/04/14 02:49:11;;;;;;;34.97;19.08;;;9.30;99.90;;;;;;6308338;22;20450;-87
2022/04/14 02:51:38;;;;;;;33.88;18.50;;;9.30;99.90;;;;;;6308245;22;20007;-87
2022/04/14 02:54:04;;;;;;;32.65;18.20;;;9.30;99.90;;;;;;6308229;22;20003;-87
2022/04/14 02:56:31;;;;;;;29.00;15.40;;;9.30;99.90;;;;;;6308307;22;20026;-88
2022/04/14 02:58:57;;;;;;;27.92;15.70;;;9.30;99.90;;;;;;6257046;22;20429;-88
2022/04/14 03:01:27;;;;;;;30.52;16.50;;;9.30;99.90;;;;;;6308162;22;20007;-87
2022/04/14 03:03:54;;;;;;;31.10;15.85;;;9.30;99.90;;;;;;6308333;22;20007;-88
2022/04/14 03:06:23;;;;;;;28.52;15.27;;;9.30;99.90;;;;;;6308124;22;20014;-87
2022/04/14 03:08:49;;;;;;;28.33;16.27;;;9.30;99.90;;;;;;6308051;22;20389;-88
2022/04/14 03:11:16;;;;;;;32.35;16.15;;;9.20;99.90;;;;;;6308039;22;20337;-87
2022/04/14 03:13:42;;;;;;;27.20;15.30;;;9.20;99.90;;;;;;6307919;22;20007;-88
2022/04/14 03:16:09;;;;;;;30.52;16.83;;;9.30;99.90;;;;;;6307735;22;20023;-87
2022/04/14 03:18:39;;;;;;;24.98;14.75;;;9.20;99.90;;;;;;6282461;22;20007;-89
2022/04/14 03:21:11;;;;;;;23.10;15.02;;;9.20;99.90;;;;;;6282415;22;20011;-87
2022/04/14 03:23:39;;;;;;;25.20;14.45;;;9.20;99.90;;;;;;6307779;22;20490;-88
2022/04/14 03:26:08;;;;;;;30.67;15.57;;;9.20;99.90;;;;;;6307944;22;20066;-87
2022/04/14 03:28:36;;;;;;;25.98;14.77;;;9.20;99.90;;;;;;6307998;22;20007;-87
2022/04/14 03:31:04;;;;;;;26.95;14.98;;;9.20;99.90;;;;;;6282112;22;20037;-87
2022/04/14 03:33:31;;;;;;;24.30;14.13;;;9.20;99.90;;;;;;6307857;22;20005;-87
2022/04/14 03:35:58;;;;;;;21.80;13.65;;;9.10;99.90;;;;;;6307560;22;20173;-87
2022/04/14 03:38:25;;;;;;;23.80;13.90;;;9.20;99.90;;;;;;6308085;22;20007;-87
2022/04/14 03:40:52;;;;;;;21.08;13.77;;;9.10;99.90;;;;;;6307845;22;20086;-88
2022/04/14 03:43:22;;;;;;;27.48;15.05;;;9.10;99.90;;;;;;6281856;22;20011;-87
2022/04/14 03:45:49;;;;;;;28.95;16.10;;;9.10;99.90;;;;;;6307717;22;20018;-89
2022/04/14 03:48:15;;;;;;;25.52;15.57;;;9.20;99.90;;;;;;6307752;22;20048;-88
2022/04/14 03:50:42;;;;;;;26.38;15.93;;;9.20;99.90;;;;;;6307847;22;20038;-88
2022/04/14 03:53:09;;;;;;;33.65;17.75;;;9.20;99.90;;;;;;6307659;22;20014;-88
2022/04/14 03:55:36;;;;;;;31.92;17.58;;;9.20;99.90;;;;;;6307640;22;20030;-89
2022/04/14 03:58:02;;;;;;;31.17;17.27;;;9.10;99.90;;;;;;6282172;22;20080;-91
2022/04/14 04:00:29;;;;;;;36.78;18.92;;;9.00;99.90;;;;;;6307882;22;20029;-91
2022/04/14 04:02:55;;;;;;;34.50;17.73;;;8.90;99.90;;;;;;6307541;22;20066;-92
2022/04/14 04:05:22;;;;;;;33.45;17.13;;;9.00;99.90;;;;;;6307294;22;20017;-90
2022/04/14 04:07:52;;;;;;;32.33;16.70;;;9.00;99.90;;;;;;6281811;22;20018;-90
2022/04/14 04:10:18;;;;;;;27.95;15.18;;;9.10;99.90;;;;;;6307567;22;20015;-91
2022/04/14 04:12:45;;;;;;;28.42;14.57;;;9.10;99.90;;;;;;6256539;22;20074;-92
2022/04/14 04:15:12;;;;;;;26.55;14.82;;;9.20;99.90;;;;;;6307307;22;20019;-91
2022/04/14 04:17:39;;;;;;;24.45;12.98;;;9.20;99.90;;;;;;6307615;22;20082;-90
2022/04/14 04:20:07;;;;;;;22.65;12.23;;;9.20;99.90;;;;;;6257934;22;20325;-92
2022/04/14 04:22:34;;;;;;;24.88;13.55;;;9.20;99.90;;;;;;6281816;22;20003;-93
2022/04/14 04:25:01;;;;;;;24.55;14.15;;;9.20;99.90;;;;;;6307497;22;20003;-89
2022/04/14 04:27:27;;;;;;;27.17;14.73;;;9.20;99.90;;;;;;6282441;22;20437;-88
2022/04/14 04:29:54;;;;;;;27.75;14.68;;;9.20;99.90;;;;;;6307419;22;20014;-88
2022/04/14 04:32:21;;;;;;;22.48;13.35;;;9.20;99.90;;;;;;6307381;22;20022;-89
2022/04/14 04:34:47;;;;;;;23.13;12.82;;;9.20;99.90;;;;;;6307436;22;20428;-90
2022/04/14 04:37:15;;;;;;;21.27;12.68;;;9.20;99.90;;;;;;6307380;22;20015;-88
2022/04/14 04:39:41;;;;;;;24.25;12.73;;;9.20;99.90;;;;;;6281875;22;20003;-89
2022/04/14 04:42:08;;;;;;;20.92;11.55;;;9.20;99.90;;;;;;6256217;22;20003;-89
2022/04/14 04:44:34;;;;;;;24.75;12.15;;;9.20;99.90;;;;;;6281375;22;20007;-89
2022/04/14 04:47:01;;;;;;;23.52;12.55;;;9.20;99.90;;;;;;6307538;22;20035;-88
2022/04/14 04:49:27;;;;;;;23.23;13.32;;;9.20;99.90;;;;;;6307213;22;20011;-88
2022/04/14 04:51:54;;;;;;;20.80;11.90;;;9.20;99.90;;;;;;6307073;22;20006;-88
2022/04/14 04:54:20;;;;;;;24.65;13.55;;;9.20;99.90;;;;;;6307284;22;20484;-88
2022/04/14 04:56:47;;;;;;;27.25;14.40;;;9.20;99.90;;;;;;6306919;22;20027;-88
2022/04/14 04:59:17;;;;;;;32.90;16.95;;;9.20;99.90;;;;;;6307980;22;20337;-88
2022/04/14 05:01:43;;;;;;;34.05;17.33;;;9.20;99.90;;;;;;6256148;22;20079;-88
2022/04/14 05:04:11;;;;;;;34.28;18.27;;;9.20;99.90;;;;;;6307160;22;20010;-87
2022/04/14 05:06:39;;;;;;;36.90;19.42;;;9.20;99.90;;;;;;6307235;22;20071;-89
2022/04/14 05:09:06;;;;;;;36.72;19.98;;;9.20;99.90;;;;;;6307089;22;20007;-88
2022/04/14 05:11:34;;;;;;;42.40;20.38;;;9.30;99.90;;;;;;6255863;22;20085;-89
2022/04/14 05:14:04;;;;;;;37.67;18.95;;;9.40;99.90;;;;;;6281384;22;20014;-88
2022/04/14 05:16:31;;;;;;;35.83;18.92;;;9.50;99.90;;;;;;6281070;22;20022;-88
2022/04/14 05:18:57;;;;;;;30.00;18.40;;;9.60;99.90;;;;;;6283155;22;20007;-88
2022/04/14 05:21:23;;;;;;;30.98;17.25;;;9.70;99.90;;;;;;6309248;22;20007;-88
2022/04/14 05:23:50;;;;;;;30.15;16.80;;;9.80;99.90;;;;;;6280366;22;20007;-88
2022/04/14 05:26:17;;;;;;;28.80;15.75;;;9.90;99.90;;;;;;6309138;22;19999;-89
2022/04/14 05:28:44;;;;;;;30.77;16.48;;;10.20;99.90;;;;;;6309056;22;20064;-87
2022/04/14 05:31:11;;;;;;;27.30;16.92;;;10.30;99.90;;;;;;6257871;22;20379;-88
2022/04/14 05:33:37;;;;;;;25.40;14.35;;;10.50;99.90;;;;;;6308989;22;20007;-89
2022/04/14 05:36:04;;;;;;;24.85;15.27;;;10.60;99.90;;;;;;6309040;22;20365;-89
2022/04/14 05:38:31;;;;;;;22.08;13.98;;;10.80;99.90;;;;;;6257668;22;20003;-89
2022/04/14 05:40:57;;;;;;;20.30;13.73;;;10.90;99.90;;;;;;6283282;22;20095;-89
2022/04/14 05:43:27;;;;;;;25.88;14.45;;;11.20;99.90;;;;;;6308968;22;20006;-89
2022/04/14 05:45:55;;;;;;;25.70;15.15;;;11.40;99.90;;;;;;6308993;22;20007;-89
2022/04/14 05:48:21;;;;;;;22.88;13.95;;;11.50;99.90;;;;;;6257504;22;20448;-89
2022/04/14 05:50:49;;;;;;;22.55;13.50;;;11.60;99.90;;;;;;6308795;22;20068;-89
2022/04/14 05:53:18;;;;;;;25.77;14.88;;;11.70;99.90;;;;;;6283380;22;20030;-88
2022/04/14 05:55:47;;;;;;;21.85;14.48;;;11.80;99.90;;;;;;6282874;22;20019;-88
2022/04/14 05:58:14;;;;;;;23.10;12.43;;;12.00;99.90;;;;;;6309136;22;20007;-88
2022/04/14 06:00:41;;;;;;;20.45;12.32;;;12.10;99.90;;;;;;6309252;22;20031;-88
2022/04/14 06:03:08;;;;;;;17.92;11.88;;;12.40;99.90;;;;;;6282887;22;20008;-88
2022/04/14 06:05:35;;;;;;;18.48;11.18;;;12.70;99.90;;;;;;6308827;22;20028;-89
2022/04/14 06:08:02;;;;;;;18.52;9.80;;;12.90;99.90;;;;;;6308798;22;20007;-88
2022/04/14 06:10:29;;;;;;;15.00;9.10;;;12.90;99.90;;;;;;6282891;22;20386;-89
2022/04/14 06:12:59;;;;;;;11.98;8.35;;;13.10;99.90;;;;;;6282908;22;20031;-89
2022/04/14 06:15:31;;;;;;;12.93;8.27;;;13.00;99.90;;;;;;6259942;22;20043;-88
2022/04/14 06:17:58;;;;;;;12.07;9.05;;;13.00;99.90;;;;;;6309151;22;20019;-89
2022/04/14 06:20:24;;;;;;;19.50;9.30;;;13.10;99.90;;;;;;6308648;22;20003;-88
2022/04/14 06:22:58;;;;;;;12.05;8.13;;;13.50;99.90;;;;;;6308598;22;20440;-89
2022/04/14 06:25:25;;;;;;;11.10;7.80;;;13.40;99.90;;;;;;6308691;22;20088;-88
2022/04/14 06:27:55;;;;;;;10.73;6.88;;;13.60;99.90;;;;;;6308635;22;20015;-88
2022/04/14 06:30:22;;;;;;;8.40;5.97;;;13.80;99.90;;;;;;6308599;22;20007;-89
2022/04/14 06:32:59;;;;;;;4.45;2.60;;;14.00;99.90;;;;;;6308766;22;20014;-88
2022/04/14 06:35:28;;;;;;;7.90;4.88;;;13.70;99.90;;;;;;6308363;22;20011;-88
2022/04/14 06:37:56;;;;;;;5.75;3.00;;;13.90;99.90;;;;;;6308660;22;20059;-88
2022/04/14 06:40:23;;;;;;;3.95;2.90;;;14.30;99.90;;;;;;6308540;22;20325;-89
2022/04/14 06:42:50;;;;;;;8.90;3.58;;;14.20;99.90;;;;;;6308415;22;20018;-88
2022/04/14 06:45:19;;;;;;;6.80;4.25;;;14.50;99.90;;;;;;6309263;22;20009;-86
2022/04/14 06:47:46;;;;;;;5.85;3.60;;;14.60;99.90;;;;;;6308182;22;20014;-85
2022/04/14 06:50:13;;;;;;;7.68;3.08;;;15.30;99.90;;;;;;6282293;22;20011;-93
2022/04/14 06:52:40;;;;;;;9.77;3.38;;;16.00;99.90;;;;;;6308421;22;20026;-90
2022/04/14 06:55:08;;;;;;;5.63;3.35;;;15.90;99.90;;;;;;6308298;22;20380;-91
2022/04/14 06:57:35;;;;;;;6.47;3.50;;;15.90;99.90;;;;;;6307986;22;20014;-91
2022/04/14 07:00:03;;;;;;;8.23;3.38;;;16.20;99.90;;;;;;6282318;22;20003;-91
2022/04/14 07:03:08;;;;;;;3.55;2.70;;;16.70;99.90;;;;;;6308066;22;20100;-92
2022/04/14 07:05:35;;;;;;;6.20;3.50;;;16.90;99.90;;;;;;6307349;22;20011;-86
2022/04/14 07:08:01;;;;;;;4.15;2.33;;;17.40;99.90;;;;;;6307263;22;20007;-85
2022/04/14 07:10:28;;;;;;;5.57;2.60;;;18.00;99.90;;;;;;6307452;22;20035;-86
2022/04/14 07:12:55;;;;;;;3.60;2.38;;;18.40;99.90;;;;;;6307582;22;20113;-85
2022/04/14 07:15:22;;;;;;;7.28;2.72;;;18.70;99.90;;;;;;6307208;22;20034;-86
2022/04/14 07:17:49;;;;;;;4.05;2.70;;;19.10;99.90;;;;;;6281802;22;20509;-87
2022/04/14 07:20:15;;;;;;;5.40;2.50;;;19.40;99.90;;;;;;6307567;22;20003;-87
2022/04/14 07:22:49;;;;;;;3.88;2.80;;;19.90;99.90;;;;;;6307265;22;20356;-87
2022/04/14 07:25:16;;;;;;;4.95;2.88;;;20.10;99.90;;;;;;6307060;22;20429;-84
2022/04/14 07:27:43;;;;;;;6.47;2.90;;;20.60;99.90;;;;;;6306705;22;20333;-84
2022/04/14 07:30:11;;;;;;;6.88;3.58;;;20.60;99.90;;;;;;6306897;22;20057;-84
2022/04/14 07:32:46;;;;;;;7.65;2.85;;;21.20;99.90;;;;;;6306894;22;20320;-84
2022/04/14 07:35:12;;;;;;;;;;;21.20;99.90;;;;;;6307644;22;20060;-84
2022/04/14 07:37:39;;;;;;;6.80;3.47;;;21.70;99.90;;;;;;6333058;22;20335;-84
2022/04/14 07:40:07;;;;;;;7.32;3.55;;;21.60;99.90;;;;;;6307106;22;20019;-87
2022/04/14 07:42:36;;;;;;;4.05;3.38;;;20.90;99.90;;;;;;6307143;22;20003;-86
2022/04/14 07:45:05;;;;;;;10.23;3.63;;;20.50;99.90;;;;;;6306748;22;20049;-86
2022/04/14 07:47:31;;;;;;;5.03;2.97;;;21.80;99.90;;;;;;6306317;22;20099;-86
2022/04/14 07:50:02;;;;;;;5.85;3.30;;;22.40;99.90;;;;;;6306290;22;20006;-87
2022/04/14 07:52:56;;;;;;;4.22;3.25;;;22.30;99.90;;;;;;6307884;22;20057;-87
2022/04/14 07:55:31;;;;;;;4.95;3.15;;;21.20;99.90;;;;;;6308823;22;20041;-90
2022/04/14 07:58:02;;;;;;;9.82;3.63;;;21.10;99.90;;;;;;6307626;22;20033;-87
2022/04/14 08:00:30;;;;;;;4.22;3.33;;;21.40;99.90;;;;;;6306545;22;20007;-87
2022/04/14 08:03:01;;;;;;;8.93;3.63;;;22.00;99.90;;;;;;6306399;22;20078;-87
2022/04/14 08:05:38;;;;;;;6.72;3.22;;;21.90;99.90;;;;;;6306580;22;20094;-87
2022/04/14 08:08:11;;;;;;;5.97;3.35;;;21.50;99.90;;;;;;6307658;22;20011;-88
2022/04/14 08:10:43;;;;;;;6.72;3.08;;;21.40;99.90;;;;;;6307179;22;20031;-87
2022/04/14 08:13:10;;;;;;;7.00;2.95;;;21.50;99.90;;;;;;6307333;22;20011;-87
2022/04/14 08:15:36;;;;;;;5.55;2.92;;;21.00;99.90;;;;;;6306855;22;20039;-87
2022/04/14 08:18:06;;;;;;;9.55;3.03;;;20.60;99.90;;;;;;6307151;22;20516;-87
2022/04/14 08:20:34;;;;;;;8.23;2.75;;;20.00;99.90;;;;;;6281407;22;20082;-86
2022/04/14 08:23:02;;;;;;;3.88;2.88;;;20.50;99.90;;;;;;6306184;22;20432;-85
2022/04/14 08:25:35;;;;;;;9.25;3.03;;;21.20;99.90;;;;;;6307445;22;20038;-92
2022/04/14 08:28:04;;;;;;;4.28;2.60;;;21.60;99.90;;;;;;6305730;22;20003;-93
2022/04/14 08:30:32;;;;;;;6.32;2.83;;;21.60;99.90;;;;;;6307150;22;20004;-93
2022/04/14 08:33:01;;;;;;;7.30;3.20;;;20.90;99.90;;;;;;6281708;22;20007;-94
2022/04/14 08:35:27;;;;;;;6.53;2.40;;;20.70;99.90;;;;;;6307388;22;20098;-93
2022/04/14 08:37:57;;;;;;;5.15;2.63;;;20.70;99.90;;;;;;6307622;22;20072;-93
2022/04/14 08:40:30;;;;;;;7.90;2.33;;;20.90;99.90;;;;;;6307334;22;19999;-94
2022/04/14 08:43:02;;;;;;;4.75;2.60;;;21.10;99.90;;;;;;6307634;22;20440;-94
2022/04/14 08:45:32;;;;;;;4.75;2.70;;;21.00;99.90;;;;;;6310478;22;20011;-94
2022/04/14 08:48:04;;;;;;;4.07;2.42;;;21.30;99.90;;;;;;6307682;22;20098;-93
2022/04/14 08:50:31;;;;;;;3.65;2.80;;;21.70;99.90;;;;;;6307347;22;20078;-94
2022/04/14 08:52:58;;;;;;;9.23;2.80;;;22.10;99.90;;;;;;6309563;22;20010;-93
2022/04/14 08:55:25;;;;;;;3.83;2.65;;;20.90;99.90;;;;;;6309597;22;20080;-93
2022/04/14 08:57:54;;;;;;;4.07;2.30;;;20.50;99.90;;;;;;6310077;22;20004;-93
2022/04/14 09:00:20;;;;;;;3.70;1.85;;;21.30;99.90;;;;;;6310105;22;20031;-93
2022/04/14 09:02:59;;;;;;;2.10;1.60;;;21.70;99.90;;;;;;6312329;22;20014;-92
2022/04/14 09:05:26;;;;;;;3.45;1.45;;;21.20;99.90;;;;;;6310312;22;20031;-93
2022/04/14 09:07:53;;;;;;;2.90;1.50;;;20.90;99.90;;;;;;6309054;22;20040;-92
2022/04/14 09:10:20;;;;;;;3.35;1.45;;;20.80;99.90;;;;;;6309520;22;20072;-92
2022/04/14 09:12:51;;;;;;;3.88;1.75;;;20.60;99.90;;;;;;6311539;22;20007;-93
2022/04/14 09:15:18;;;;;;;3.50;1.70;;;20.20;99.90;;;;;;6335968;22;20019;-93
2022/04/14 09:17:45;;;;;;;2.03;1.40;;;19.80;99.90;;;;;;6284884;22;20082;-93
2022/04/14 09:20:36;;;;;;;2.75;1.50;;;19.80;99.90;;;;;;6309676;22;20007;-94
2022/04/14 09:23:20;;;;;;;2.78;1.60;;;19.60;99.90;;;;;;6309009;22;20004;-94
2022/04/14 09:25:47;;;;;;;;;;;19.30;99.90;;;;;;6335160;22;20099;-94
2022/04/14 09:28:16;;;;;;;3.00;1.73;;;19.30;99.90;;;;;;6334386;22;20324;-93
2022/04/14 09:31:04;;;;;;;1.95;1.70;;;19.30;99.90;;;;;;6309072;22;20385;-94
2022/04/14 09:33:43;;;;;;;9.05;2.10;;;19.10;99.90;;;;;;6283523;22;20428;-94
2022/04/14 09:36:18;;;;;;;3.95;1.60;;;19.10;99.90;;;;;;6309099;22;20523;-93
2022/04/14 09:39:02;;;;;;;5.85;2.50;;;19.10;99.90;;;;;;6309197;22;20007;-93
2022/04/14 09:41:30;;;;;;;5.80;1.70;;;19.20;99.90;;;;;;6309398;22;20011;-93
2022/04/14 09:43:58;;;;;;;2.30;1.75;;;19.00;99.90;;;;;;6309976;22;20420;-94
2022/04/14 09:46:24;;;;;;;3.58;1.70;;;19.00;99.90;;;;;;6311258;22;20011;-93
2022/04/14 09:49:09;;;;;;;6.15;1.92;;;19.00;99.90;;;;;;6311476;22;20028;-94
2022/04/14 09:51:41;;;;;;;5.13;1.77;;;19.00;99.90;;;;;;6309814;22;20081;-94
2022/04/14 09:54:11;;;;;;;2.28;1.83;;;19.10;99.90;;;;;;6310384;22;20007;-93
2022/04/14 09:56:42;;;;;;;4.60;1.75;;;19.10;99.90;;;;;;6336791;22;20070;-95
2022/04/14 11:30:04;;;;;;;5.95;2.38;;;19.10;99.90;;;;;;6324800;22;20800;-94
2022/04/14 11:32:39;;;;;;;9.27;2.35;;;19.20;99.90;;;;;;6288398;22;20038;-94
2022/04/14 11:35:13;;;;;;;3.60;2.22;;;19.20;99.90;;;;;;6287104;22;20002;-94
2022/04/14 11:37:41;;;;;;;;;;;19.20;99.90;;;;;;6282778;22;20035;-94
2022/04/14 11:40:17;;;;;;;2.72;2.35;;;19.20;99.90;;;;;;6307809;22;19981;-94
2022/04/14 11:42:51;;;;;;;4.28;2.33;;;19.20;99.90;;;;;;6283407;22;20007;-94
2022/04/14 11:45:31;;;;;;;5.53;2.58;;;19.20;99.90;;;;;;6281987;22;20007;-94
2022/04/14 11:48:00;;;;;;;5.13;2.40;;;19.30;99.90;;;;;;6256847;22;20015;-93
2022/04/14 11:50:33;;;;;;;5.18;2.20;;;19.30;99.90;;;;;;6282164;22;20011;-92
2022/04/14 11:53:03;;;;;;;6.90;2.90;;;19.40;99.90;;;;;;6257053;22;20302;-93
2022/04/14 11:55:42;;;;;;;6.43;3.03;;;19.40;99.90;;;;;;6281914;22;20057;-92
2022/04/14 11:58:11;;;;;;;5.97;2.70;;;19.50;99.90;;;;;;6282015;22;20015;-94
2022/04/14 12:00:42;;;;;;;3.85;2.10;;;19.40;99.90;;;;;;6256335;22;20007;-91
2022/04/14 12:03:09;;;;;;;5.32;2.05;;;19.50;99.90;;;;;;6281969;22;20008;-93
2022/04/14 12:05:36;;;;;;;4.57;2.08;;;19.40;99.90;;;;;;6256358;22;20026;-93
2022/04/14 12:08:08;;;;;;;4.57;2.13;;;19.40;99.90;;;;;;6282198;22;20004;-93
2022/04/14 12:10:34;;;;;;;7.90;2.70;;;19.30;99.90;;;;;;6282065;22;20011;-92
2022/04/14 12:13:08;;;;;;;8.13;2.22;;;19.30;99.90;;;;;;6307827;22;19999;-91
2022/04/14 12:15:35;;;;;;;4.57;2.10;;;19.40;99.90;;;;;;6281749;22;20019;-91
2022/04/14 12:18:12;;;;;;;9.15;2.97;;;19.40;99.90;;;;;;6256491;22;19999;-90
2022/04/14 12:20:45;;;;;;;6.55;2.25;;;19.50;99.90;;;;;;6282332;22;20375;-91
2022/04/14 12:23:11;;;;;;;7.65;1.63;;;19.60;99.90;;;;;;6307582;22;20003;-91
2022/04/14 12:25:39;;;;;;;8.50;1.80;;;19.60;99.90;;;;;;6281925;22;20030;-90
2022/04/14 12:28:07;;;;;;;4.75;1.83;;;19.70;99.90;;;;;;6256556;22;20004;-91
2022/04/14 12:30:34;;;;;;;9.90;2.97;;;19.80;99.90;;;;;;6283939;22;20429;-91
2022/04/14 12:33:06;;;;;;;2.97;1.30;;;19.90;99.90;;;;;;6258975;22;20045;-92
2022/04/14 12:35:36;;;;;;;4.50;1.50;;;20.00;99.90;;;;;;6256091;22;20008;-92
2022/04/14 12:38:21;;;;;;;5.40;2.00;;;20.00;99.90;;;;;;6281117;22;20086;-91
2022/04/14 12:41:02;;;;;;;4.55;1.38;;;20.10;99.90;;;;;;6280970;22;20003;-91
2022/04/14 12:43:39;;;;;;;4.90;1.92;;;20.00;99.90;;;;;;6256460;22;20007;-91
2022/04/14 12:46:22;;;;;;;3.00;1.75;;;20.00;99.90;;;;;;6281751;22;20007;-90
2022/04/14 12:48:59;;;;;;;4.15;2.00;;;19.90;99.90;;;;;;6256425;22;20077;-91
2022/04/14 12:51:30;;;;;;;6.38;2.15;;;19.80;99.90;;;;;;6281644;22;20099;-92
2022/04/14 12:53:57;;;;;;;3.05;1.90;;;19.80;99.90;;;;;;6281563;22;20074;-91
2022/04/14 12:56:24;;;;;;;7.10;2.10;;;19.70;99.90;;;;;;6255984;22;20030;-92
2022/04/14 12:59:15;;;;;;;1.85;1.35;;;19.80;99.90;;;;;;6307299;22;20004;-92
2022/04/14 13:01:52;;;;;;;2.78;1.67;;;19.80;99.90;;;;;;6281489;22;20014;-92
2022/04/14 13:04:30;;;;;;;5.40;2.03;;;19.80;99.90;;;;;;6281418;22;20031;-91
2022/04/14 13:07:02;;;;;;;6.40;2.05;;;19.80;99.90;;;;;;6286240;22;20011;-90
2022/04/14 13:09:29;;;;;;;2.72;1.83;;;19.90;99.90;;;;;;6256398;22;20003;-92
2022/04/14 13:11:55;;;;;;;4.57;1.85;;;19.80;99.90;;;;;;6281491;22;20017;-92
2022/04/14 13:14:24;;;;;;;4.35;2.25;;;19.80;99.90;;;;;;6256046;22;20007;-93
2022/04/14 13:16:53;;;;;;;5.15;2.05;;;19.70;99.90;;;;;;6281332;22;20023;-91
2022/04/14 13:19:21;;;;;;;5.78;2.00;;;19.70;99.90;;;;;;6255923;22;20003;-91
2022/04/14 13:21:47;;;;;;;2.40;1.65;;;19.70;99.90;;;;;;6281295;22;20061;-91
2022/04/14 13:24:14;;;;;;;3.25;1.60;;;19.60;99.90;;;;;;6256069;22;20010;-90
2022/04/14 13:26:41;;;;;;;6.00;2.15;;;19.70;99.90;;;;;;6281368;22;20510;-92
2022/04/14 13:29:10;;;;;;;3.15;1.80;;;19.70;99.90;;;;;;6256207;22;20015;-92
2022/04/14 13:31:43;;;;;;;6.80;2.55;;;19.60;99.90;;;;;;6250438;22;20043;-93
2022/04/14 13:34:09;;;;;;;3.90;2.00;;;19.60;99.90;;;;;;6276198;22;20008;-92
2022/04/14 13:36:36;;;;;;;3.33;1.70;;;19.60;99.90;;;;;;6250459;22;20011;-92
2022/04/14 13:39:04;;;;;;;4.78;2.10;;;19.50;99.90;;;;;;6276783;22;20008;-93
2022/04/14 13:41:38;;;;;;;3.17;1.80;;;19.40;99.90;;;;;;6253354;22;20008;-94
2022/04/14 13:44:08;;;;;;;3.45;1.95;;;19.40;99.90;;;;;;6279265;22;20014;-93
2022/04/14 14:11:28;;;;;;;3.28;1.73;;;19.50;99.90;;;;;;6339886;22;19914;-96
2022/04/14 14:13:54;;;;;;;2.65;1.70;;;19.50;99.90;;;;;;6291549;22;20003;-95
2022/04/14 14:16:31;;;;;;;2.72;1.50;;;19.50;99.90;;;;;;6316739;22;20013;-94
2022/04/14 14:19:26;;;;;;;5.47;2.20;;;19.60;99.90;;;;;;6291730;22;20010;-95
2022/04/14 14:25:08;;;;;;;;;;;;;;;;;;;;;
2022/04/14 16:17:11;;;;;;;4.20;1.88;;;19.10;99.90;;;;;;6356985;22;20027;-95
2022/04/14 16:19:41;;;;;;;3.95;1.65;;;19.00;99.90;;;;;;6295516;22;20039;-94
2022/04/14 16:28:40;;;;;;;3.92;2.20;;;18.90;99.90;;;;;;6317815;22;20060;-94
2022/04/14 16:31:31;;;;;;;3.00;2.20;;;18.80;99.90;;;;;;6323942;22;20091;-95
2022/04/14 16:33:59;;;;;;;6.03;2.08;;;18.80;99.90;;;;;;6295163;22;20003;-94
2022/04/14 16:36:25;;;;;;;3.60;1.85;;;18.70;99.90;;;;;;6287939;22;20021;-95
2022/04/14 16:38:53;;;;;;;4.10;1.75;;;18.60;99.90;;;;;;6308885;22;20015;-94
2022/04/14 16:41:44;;;;;;;3.92;2.05;;;18.60;99.90;;;;;;6329524;22;20003;-95
2022/04/14 16:47:31;;;;;;;3.83;1.63;;;18.40;99.90;;;;;;6353285;22;20030;-94
2022/04/14 16:50:10;;;;;;;2.80;1.70;;;18.30;99.90;;;;;;6328125;22;19987;-95
2022/04/14 16:52:37;;;;;;;4.68;1.90;;;18.30;99.90;;;;;;6298798;22;20011;-94